createdAt,value
2023-04-03T00:01:58.378Z,3.61
2023-04-03T00:04:44.823Z,3.56
2023-04-03T00:07:31.831Z,3.41
2023-04-03T00:10:18.726Z,3.62
2023-04-03T00:13:06.029Z,3.47
2023-04-03T00:15:53.098Z,3.32
2023-04-03T00:18:42.206Z,3.27
2023-04-03T00:21:29.542Z,3.13
2023-04-03T00:24:16.325Z,3.06
2023-04-03T00:27:03.064Z,2.90
2023-04-03T00:29:49.940Z,2.91
2023-04-03T00:32:37.086Z,2.82
2023-04-03T00:35:26.309Z,2.75
2023-04-03T00:38:13.727Z,2.83
2023-04-03T00:41:00.140Z,2.75
2023-04-03T00:43:47.086Z,2.94
2023-04-03T00:46:33.519Z,2.59
2023-04-03T00:49:20.513Z,2.55
2023-04-03T00:52:13.530Z,2.43
2023-04-03T00:55:06.060Z,2.54
2023-04-03T00:57:54.535Z,2.41
2023-04-03T01:00:44.514Z,2.35
2023-04-03T01:03:32.592Z,2.36
2023-04-03T01:06:26.246Z,2.32
2023-04-03T01:09:14.400Z,2.35
2023-04-03T01:12:17.071Z,2.38
2023-04-03T01:15:07.739Z,2.33
2023-04-03T01:17:57.451Z,2.41
2023-04-03T01:21:08.571Z,2.45
2023-04-03T01:24:08.770Z,2.39
2023-04-03T01:26:56.875Z,2.34
2023-04-03T01:29:45.089Z,2.37
2023-04-03T01:32:32.946Z,2.35
2023-04-03T01:35:19.555Z,2.28
2023-04-03T01:38:06.294Z,2.27
2023-04-03T01:40:53.182Z,2.28
2023-04-03T01:43:39.976Z,2.24
2023-04-03T01:46:27.137Z,2.14
2023-04-03T01:49:15.505Z,2.24
2023-04-03T01:52:02.345Z,2.16
2023-04-03T01:54:49.155Z,2.37
2023-04-03T01:57:35.847Z,2.67
2023-04-03T02:00:23.064Z,2.55
2023-04-03T02:03:10.704Z,2.36
2023-04-03T02:05:58.647Z,2.43
2023-04-03T02:08:45.084Z,2.34
2023-04-03T02:11:32.030Z,2.27
2023-04-03T02:14:18.515Z,2.29
2023-04-03T02:17:09.594Z,2.26
2023-04-03T02:19:56.539Z,2.34
2023-04-03T02:22:45.142Z,2.38
2023-04-03T02:25:33.294Z,2.37
2023-04-03T02:28:19.806Z,2.34
2023-04-03T02:31:07.727Z,2.39
2023-04-03T02:33:55.812Z,2.28
2023-04-03T02:36:42.858Z,2.18
2023-04-03T02:39:32.512Z,2.27
2023-04-03T02:42:20.517Z,2.14
2023-04-03T02:45:08.207Z,2.12
2023-04-03T02:47:55.469Z,2.39
2023-04-03T02:50:42.014Z,2.14
2023-04-03T02:53:28.854Z,2.16
2023-04-03T02:56:18.128Z,2.03
2023-04-03T02:59:05.157Z,2.01
2023-04-03T03:01:53.649Z,2.09
2023-04-03T03:04:40.456Z,2.09
2023-04-03T03:07:27.269Z,2.10
2023-04-03T03:10:14.013Z,2.23
2023-04-03T03:13:02.325Z,2.06
2023-04-03T03:15:50.611Z,2.08
2023-04-03T03:18:38.218Z,1.95
2023-04-03T03:21:24.589Z,2.07
2023-04-03T03:24:13.099Z,2.16
2023-04-03T03:26:59.531Z,1.95
2023-04-03T03:29:47.660Z,1.97
2023-04-03T03:32:34.453Z,1.95
2023-04-03T03:35:22.193Z,1.96
2023-04-03T03:38:09.023Z,1.85
2023-04-03T03:40:56.044Z,1.87
2023-04-03T03:43:44.028Z,1.79
2023-04-03T03:46:33.877Z,1.73
2023-04-03T03:49:20.927Z,1.68
2023-04-03T03:52:07.388Z,1.73
2023-04-03T03:54:54.198Z,1.86
2023-04-03T03:57:41.004Z,1.89
2023-04-03T04:00:28.327Z,1.84
2023-04-03T04:03:17.949Z,1.76
2023-04-03T04:06:07.894Z,1.64
2023-04-03T04:08:55.133Z,1.60
2023-04-03T04:11:41.838Z,1.69
2023-04-03T04:14:31.396Z,1.71
2023-04-03T04:17:18.979Z,1.68
2023-04-03T04:20:08.306Z,1.65
2023-04-03T04:22:55.771Z,1.59
2023-04-03T04:25:43.631Z,1.54
2023-04-03T04:28:30.946Z,1.66
2023-04-03T04:31:19.960Z,1.57
2023-04-03T04:34:06.582Z,1.57
2023-04-03T04:36:55.941Z,1.59
2023-04-03T04:39:42.625Z,1.72
2023-04-03T04:42:29.469Z,1.62
2023-04-03T04:45:16.720Z,1.58
2023-04-03T04:48:06.213Z,1.57
2023-04-03T04:50:52.958Z,1.67
2023-04-03T04:53:41.036Z,1.86
2023-04-03T04:56:29.303Z,1.78
2023-04-03T04:59:18.793Z,1.85
2023-04-03T05:02:06.678Z,1.92
2023-04-03T05:04:53.811Z,2.02
2023-04-03T05:07:47.032Z,2.61
2023-04-03T05:10:35.538Z,3.34
2023-04-03T05:13:22.539Z,4.03
2023-04-03T05:16:09.428Z,4.77
2023-04-03T05:18:56.639Z,5.15
2023-04-03T05:21:43.853Z,5.50
2023-04-03T05:24:34.094Z,5.54
2023-04-03T05:27:24.585Z,4.78
2023-04-03T05:30:15.822Z,4.18
2023-04-03T05:33:06.302Z,3.97
2023-04-03T05:36:05.742Z,3.65
2023-04-03T05:38:57.357Z,3.49
2023-04-03T05:41:46.758Z,3.54
2023-04-03T05:44:35.447Z,3.44
2023-04-03T05:47:22.483Z,3.24
2023-04-03T05:50:10.148Z,3.49
2023-04-03T05:52:59.956Z,3.56
2023-04-03T05:55:48.920Z,3.63
2023-04-03T05:58:35.813Z,3.61
2023-04-03T06:01:24.611Z,3.87
2023-04-03T06:04:11.446Z,3.77
2023-04-03T06:06:59.807Z,3.62
2023-04-03T06:09:47.049Z,3.89
2023-04-03T06:12:34.313Z,4.05
2023-04-03T06:15:21.472Z,4.65
2023-04-03T06:18:09.700Z,5.40
2023-04-03T06:20:56.411Z,6.15
2023-04-03T06:23:43.116Z,6.41
2023-04-03T06:26:30.248Z,6.38
2023-04-03T06:29:16.935Z,6.14
2023-04-03T06:32:03.773Z,5.79
2023-04-03T06:34:52.371Z,5.54
2023-04-03T06:37:38.929Z,5.54
2023-04-03T06:40:27.883Z,5.51
2023-04-03T06:43:14.346Z,5.69
2023-04-03T06:46:01.228Z,6.01
2023-04-03T06:48:48.418Z,5.96
2023-04-03T06:51:37.414Z,6.00
2023-04-03T06:54:24.142Z,5.89
2023-04-03T06:57:11.203Z,5.70
2023-04-03T06:59:57.900Z,6.05
2023-04-03T07:02:44.669Z,5.97
2023-04-03T07:05:31.844Z,5.93
2023-04-03T07:08:19.826Z,6.18
2023-04-03T07:11:07.628Z,5.98
2023-04-03T07:13:55.057Z,5.89
2023-04-03T07:16:42.654Z,5.60
2023-04-03T07:19:29.476Z,5.54
2023-04-03T07:22:16.119Z,6.00
2023-04-03T07:25:05.544Z,6.31
2023-04-03T07:27:52.543Z,5.63
2023-04-03T07:30:44.782Z,5.94
2023-04-03T07:33:32.054Z,6.24
2023-04-03T07:36:21.613Z,6.38
2023-04-03T07:39:09.263Z,6.36
2023-04-03T07:41:57.546Z,6.18
2023-04-03T07:44:44.424Z,6.46
2023-04-03T07:47:31.451Z,6.12
2023-04-03T07:50:18.058Z,6.26
2023-04-03T07:53:04.921Z,6.08
2023-04-03T07:55:56.532Z,6.20
2023-04-03T07:58:44.638Z,6.41
2023-04-03T08:01:33.579Z,5.93
2023-04-03T08:04:20.841Z,6.71
2023-04-03T08:07:07.940Z,6.59
2023-04-03T08:09:54.489Z,6.68
2023-04-03T08:12:41.453Z,6.38
2023-04-03T08:15:29.866Z,6.14
2023-04-03T08:18:17.084Z,6.94
2023-04-03T08:21:07.087Z,6.89
2023-04-03T08:23:54.296Z,6.79
2023-04-03T08:26:40.734Z,6.74
2023-04-03T08:29:27.520Z,6.83
2023-04-03T08:32:15.745Z,6.89
2023-04-03T08:35:02.633Z,7.63
2023-04-03T08:37:49.372Z,8.49
2023-04-03T08:40:36.588Z,8.42
2023-04-03T08:43:35.565Z,8.04
2023-04-03T08:46:27.177Z,6.98
2023-04-03T08:49:22.858Z,6.88
2023-04-03T08:52:16.168Z,6.69
2023-04-03T08:55:06.303Z,7.43
2023-04-03T08:57:59.592Z,7.94
2023-04-03T09:00:50.917Z,8.30
2023-04-03T09:03:41.892Z,8.39
2023-04-03T09:06:33.938Z,8.36
2023-04-03T09:09:33.408Z,8.29
2023-04-03T09:12:26.818Z,7.52
2023-04-03T09:15:31.416Z,8.29
2023-04-03T09:18:29.318Z,8.80
2023-04-03T09:21:23.000Z,8.46
2023-04-03T09:24:14.117Z,7.97
2023-04-03T09:27:06.912Z,8.01
2023-04-03T09:29:56.466Z,8.07
2023-04-03T09:32:43.412Z,7.64
2023-04-03T09:35:44.891Z,8.12
2023-04-03T09:38:35.640Z,7.88
2023-04-03T09:41:24.913Z,7.81
2023-04-03T09:44:23.881Z,7.78
2023-04-03T09:47:22.037Z,7.89
2023-04-03T09:50:22.863Z,8.17
2023-04-03T09:53:30.416Z,8.19
2023-04-03T09:56:27.926Z,7.69
2023-04-03T09:59:18.057Z,7.77
2023-04-03T10:02:21.996Z,7.93
2023-04-03T10:05:31.984Z,8.23
2023-04-03T10:08:25.764Z,8.74
2023-04-03T10:11:15.524Z,8.68
2023-04-03T10:14:07.849Z,9.12
2023-04-03T10:17:04.532Z,8.34
2023-04-03T10:19:55.628Z,7.96
2023-04-03T10:22:49.266Z,8.04
2023-04-03T10:25:43.079Z,7.65
2023-04-03T10:28:37.536Z,7.68
2023-04-03T10:31:30.035Z,7.67
2023-04-03T10:34:25.278Z,7.61
2023-04-03T10:37:20.774Z,8.00
2023-04-03T10:40:21.885Z,8.42
2023-04-03T10:43:17.974Z,8.53
2023-04-03T10:46:12.309Z,7.88
2023-04-03T10:49:13.034Z,7.57
2023-04-03T10:52:08.343Z,7.47
2023-04-03T10:55:07.733Z,8.06
2023-04-03T10:57:56.544Z,8.32
2023-04-03T11:00:48.156Z,8.62
2023-04-03T11:03:38.951Z,8.33
2023-04-03T11:06:30.758Z,8.21
2023-04-03T11:09:25.361Z,7.93
2023-04-03T11:12:17.378Z,7.98
2023-04-03T11:15:05.802Z,7.54
2023-04-03T11:17:56.289Z,8.04
2023-04-03T11:20:46.875Z,7.86
2023-04-03T11:23:49.088Z,8.37
2023-04-03T11:26:41.092Z,8.28
2023-04-03T11:29:35.816Z,8.01
2023-04-03T11:32:56.850Z,7.87
2023-04-03T11:35:47.485Z,7.76
2023-04-03T11:38:40.581Z,8.16
2023-04-03T11:41:29.895Z,7.99
2023-04-03T11:44:35.594Z,8.57
2023-04-03T11:47:46.310Z,9.06
2023-04-03T11:50:42.474Z,9.08
2023-04-03T11:53:33.338Z,9.82
2023-04-03T11:56:37.276Z,9.84
2023-04-03T11:59:30.865Z,9.59
2023-04-03T12:05:31.529Z,8.96
2023-04-03T12:08:25.920Z,8.72
2023-04-03T12:11:18.556Z,8.60
2023-04-03T12:14:16.663Z,8.58
2023-04-03T12:17:03.489Z,8.47
2023-04-03T12:19:50.317Z,8.50
2023-04-03T12:22:37.198Z,8.48
2023-04-03T12:25:50.817Z,8.15
2023-04-03T12:28:41.982Z,8.16
2023-04-03T12:31:58.234Z,8.19
2023-04-03T12:34:53.516Z,7.76
2023-04-03T12:37:51.373Z,8.09
2023-04-03T12:40:44.980Z,8.03
2023-04-03T12:43:52.551Z,8.12
2023-04-03T12:46:45.839Z,8.40
2023-04-03T12:49:38.382Z,8.29
2023-04-03T12:52:35.715Z,8.34
2023-04-03T12:55:23.192Z,8.46
2023-04-03T12:58:18.532Z,8.63
2023-04-03T13:01:11.574Z,8.31
2023-04-03T13:04:00.761Z,8.07
2023-04-03T13:06:47.429Z,7.67
2023-04-03T13:09:34.615Z,7.82
2023-04-03T13:12:21.788Z,7.89
2023-04-03T13:15:16.867Z,7.72
2023-04-03T13:18:03.704Z,7.88
2023-04-03T13:20:52.341Z,7.88
2023-04-03T13:23:44.922Z,7.98
2023-04-03T13:26:34.993Z,8.05
2023-04-03T13:29:31.030Z,8.46
2023-04-03T13:32:21.985Z,8.26
2023-04-03T13:35:27.732Z,8.46
2023-04-03T13:38:27.014Z,8.77
2023-04-03T13:41:31.298Z,8.92
2023-04-03T13:44:30.908Z,9.22
2023-04-03T13:47:21.687Z,9.04
2023-04-03T13:50:17.993Z,9.24
2023-04-03T13:53:13.127Z,8.94
2023-04-03T13:56:07.914Z,8.80
2023-04-03T13:58:57.981Z,8.35
2023-04-03T14:01:49.624Z,8.55
2023-04-03T14:04:49.541Z,8.57
2023-04-03T14:07:36.420Z,8.56
2023-04-03T14:10:23.424Z,7.92
2023-04-03T14:13:15.837Z,8.09
2023-04-03T14:16:15.221Z,7.94
2023-04-03T14:19:02.765Z,7.79
2023-04-03T14:21:50.187Z,8.01
2023-04-03T14:24:36.986Z,7.93
2023-04-03T14:27:26.157Z,7.54
2023-04-03T14:30:21.775Z,7.81
2023-04-03T14:33:08.475Z,7.89
2023-04-03T14:35:56.555Z,7.56
2023-04-03T14:38:46.125Z,7.51
2023-04-03T14:41:32.946Z,7.72
2023-04-03T14:44:19.477Z,7.62
2023-04-03T14:47:11.867Z,7.65
2023-04-03T14:50:01.999Z,7.83
2023-04-03T14:52:51.211Z,7.81
2023-04-03T14:55:37.656Z,7.60
2023-04-03T14:58:24.602Z,7.73
2023-04-03T15:01:13.171Z,7.89
2023-04-03T15:04:01.192Z,7.95
2023-04-03T15:06:48.874Z,8.05
2023-04-03T15:09:39.167Z,7.74
2023-04-03T15:12:25.964Z,8.05
2023-04-03T15:15:12.931Z,7.90
2023-04-03T15:18:00.152Z,8.34
2023-04-03T15:20:49.194Z,8.57
2023-04-03T15:23:35.860Z,8.38
2023-04-03T15:26:22.771Z,8.70
2023-04-03T15:29:09.577Z,8.56
2023-04-03T15:31:56.845Z,8.23
2023-04-03T15:34:43.531Z,8.57
2023-04-03T15:37:31.555Z,8.10
2023-04-03T15:40:18.468Z,7.41
2023-04-03T15:43:05.068Z,7.70
2023-04-03T15:45:52.690Z,7.52
2023-04-03T15:48:39.683Z,7.60
2023-04-03T15:51:26.489Z,7.55
2023-04-03T15:54:14.772Z,7.75
2023-04-03T15:57:01.469Z,7.68
2023-04-03T15:59:48.351Z,7.52
2023-04-03T16:02:35.988Z,7.89
2023-04-03T16:05:22.873Z,8.11
2023-04-03T16:08:10.112Z,8.10
2023-04-03T16:10:57.969Z,7.97
2023-04-03T16:13:44.950Z,8.02
2023-04-03T16:16:32.050Z,8.14
2023-04-03T16:19:19.563Z,8.13
2023-04-03T16:22:06.659Z,8.21
2023-04-03T16:24:53.245Z,7.86
2023-04-03T16:27:41.897Z,7.93
2023-04-03T16:30:28.681Z,7.52
2023-04-03T16:33:15.694Z,7.49
2023-04-03T16:36:02.777Z,7.08
2023-04-03T16:38:49.206Z,7.67
2023-04-03T16:41:36.050Z,7.65
2023-04-03T16:44:24.388Z,7.72
2023-04-03T16:47:11.918Z,7.71
2023-04-03T16:49:58.662Z,7.79
2023-04-03T16:52:47.467Z,7.66
2023-04-03T16:55:34.374Z,7.73
2023-04-03T16:58:23.413Z,7.70
2023-04-03T17:01:13.299Z,7.42
2023-04-03T17:03:59.976Z,7.61
2023-04-03T17:06:46.997Z,7.59
2023-04-03T17:09:33.776Z,7.29
2023-04-03T17:12:20.756Z,7.31
2023-04-03T17:15:08.769Z,7.33
2023-04-03T17:17:57.138Z,7.07
2023-04-03T17:20:43.384Z,7.00
2023-04-03T17:23:30.502Z,7.06
2023-04-03T17:26:17.410Z,7.08
2023-04-03T17:29:04.793Z,6.86
2023-04-03T17:31:51.344Z,6.90
2023-04-03T17:34:40.017Z,6.84
2023-04-03T17:37:26.764Z,6.67
2023-04-03T17:40:15.083Z,6.67
2023-04-03T17:43:01.857Z,6.57
2023-04-03T17:45:48.595Z,6.46
2023-04-03T17:48:36.025Z,6.39
2023-04-03T17:51:27.075Z,6.31
2023-04-03T17:54:13.693Z,6.32
2023-04-03T17:57:00.485Z,6.39
2023-04-03T17:59:47.380Z,6.38
2023-04-03T18:02:34.077Z,6.42
2023-04-03T18:05:21.168Z,6.30
2023-04-03T18:08:09.253Z,6.44
2023-04-03T18:10:56.228Z,6.59
2023-04-03T18:13:43.280Z,6.48
2023-04-03T18:16:30.202Z,6.37
2023-04-03T18:19:23.411Z,6.27
2023-04-03T18:22:15.616Z,6.16
2023-04-03T18:25:03.453Z,6.35
2023-04-03T18:27:51.281Z,6.19
2023-04-03T18:30:38.348Z,6.34
2023-04-03T18:33:25.153Z,6.43
2023-04-03T18:36:12.204Z,6.51
2023-04-03T18:38:58.660Z,6.48
2023-04-03T18:41:47.805Z,6.37
2023-04-03T18:44:35.707Z,6.48
2023-04-03T18:47:22.261Z,6.52
2023-04-03T18:50:10.525Z,6.47
2023-04-03T18:52:56.896Z,6.21
2023-04-03T18:55:43.732Z,6.31
2023-04-03T18:58:32.220Z,6.36
2023-04-03T19:01:20.047Z,6.32
2023-04-03T19:04:07.154Z,6.21
2023-04-03T19:06:54.180Z,6.10
2023-04-03T19:09:41.327Z,5.65
2023-04-03T19:12:27.917Z,5.80
2023-04-03T19:15:16.580Z,5.65
2023-04-03T19:18:03.570Z,5.68
2023-04-03T19:20:50.318Z,5.65
2023-04-03T19:23:37.352Z,5.54
2023-04-03T19:26:23.808Z,5.46
2023-04-03T19:29:12.831Z,5.45
2023-04-03T19:32:01.990Z,5.35
2023-04-03T19:34:48.856Z,5.30
2023-04-03T19:37:36.304Z,5.04
2023-04-03T19:40:23.702Z,4.89
2023-04-03T19:43:11.603Z,4.84
2023-04-03T19:45:58.155Z,4.93
2023-04-03T19:48:47.412Z,4.49
2023-04-03T19:51:39.799Z,4.53
2023-04-03T19:54:27.356Z,4.47
2023-04-03T19:57:15.617Z,4.35
2023-04-03T20:00:02.769Z,4.42
2023-04-03T20:02:58.815Z,4.28
2023-04-03T20:05:46.832Z,4.24
2023-04-03T20:08:33.381Z,4.18
2023-04-03T20:11:20.427Z,4.19
2023-04-03T20:14:07.250Z,4.13
2023-04-03T20:16:54.225Z,4.24
2023-04-03T20:19:41.103Z,4.24
2023-04-03T20:22:29.600Z,4.04
2023-04-03T20:25:23.933Z,3.98
2023-04-03T20:28:23.477Z,3.91
2023-04-03T20:31:12.096Z,3.96
2023-04-03T20:33:58.745Z,3.81
2023-04-03T20:36:49.657Z,3.70
2023-04-03T20:39:38.429Z,3.73
2023-04-03T20:42:26.163Z,3.58
2023-04-03T20:45:13.466Z,3.54
2023-04-03T20:48:02.376Z,3.50
2023-04-03T20:50:49.099Z,3.62
2023-04-03T20:53:36.204Z,3.61
2023-04-03T20:56:24.411Z,3.35
2023-04-03T20:59:11.732Z,3.24
2023-04-03T21:01:58.356Z,3.30
2023-04-03T21:04:49.996Z,3.21
2023-04-03T21:08:15.766Z,3.02
2023-04-03T21:11:39.835Z,2.99
2023-04-03T21:15:04.436Z,3.04
2023-04-03T21:18:32.824Z,2.91
2023-04-03T21:21:22.477Z,3.01
2023-04-03T21:24:10.236Z,3.00
2023-04-03T21:26:58.076Z,3.08
2023-04-03T21:29:45.181Z,2.97
2023-04-03T21:32:31.623Z,2.86
2023-04-03T21:35:20.301Z,2.86
2023-04-03T21:38:06.901Z,2.85
2023-04-03T21:40:56.774Z,2.75
2023-04-03T21:43:43.177Z,2.71
2023-04-03T21:46:30.011Z,2.60
2023-04-03T21:49:17.385Z,2.54
2023-04-03T21:52:05.472Z,2.56
2023-04-03T21:54:51.994Z,2.57
2023-04-03T21:57:38.761Z,2.52
2023-04-03T22:00:25.649Z,2.52
2023-04-03T22:03:13.631Z,2.42
2023-04-03T22:06:01.939Z,1.63
2023-04-03T22:08:49.973Z,2.39
2023-04-03T22:11:41.333Z,2.33
2023-04-03T22:14:28.055Z,2.35
2023-04-03T22:17:14.791Z,2.32
2023-04-03T22:20:01.776Z,2.30
2023-04-03T22:22:50.753Z,2.32
2023-04-03T22:25:38.520Z,2.25
2023-04-03T22:28:25.979Z,2.18
2023-04-03T22:31:14.510Z,2.11
2023-04-03T22:34:04.219Z,2.06
2023-04-03T22:36:51.044Z,2.05
2023-04-03T22:39:38.216Z,1.97
2023-04-03T22:42:26.385Z,2.09
2023-04-03T22:45:12.948Z,1.99
2023-04-03T22:48:00.325Z,2.00
2023-04-03T22:50:47.263Z,2.06
2023-04-03T22:53:33.885Z,1.95
2023-04-03T22:56:23.936Z,2.09
2023-04-03T22:59:13.458Z,2.01
2023-04-03T23:02:00.316Z,2.01
2023-04-03T23:04:47.556Z,2.09
2023-04-03T23:07:34.113Z,1.95
2023-04-03T23:10:20.940Z,1.82
2023-04-03T23:13:07.831Z,1.78
2023-04-03T23:15:56.547Z,1.70
2023-04-03T23:18:43.884Z,1.56
2023-04-03T23:21:30.284Z,1.72
2023-04-03T23:24:17.332Z,1.81
2023-04-03T23:27:03.820Z,1.67
2023-04-03T23:29:50.803Z,1.67
2023-04-03T23:32:38.678Z,1.75
2023-04-03T23:35:25.446Z,1.63
2023-04-03T23:38:12.300Z,1.64
2023-04-03T23:40:59.076Z,1.56
2023-04-03T23:43:47.568Z,1.68
2023-04-03T23:46:34.587Z,1.77
2023-04-03T23:49:22.830Z,1.74
2023-04-03T23:52:09.613Z,1.71
2023-04-03T23:54:56.321Z,1.61
2023-04-03T23:57:43.175Z,1.51
